createdAt,value
2018-05-17T00:00:20.094Z,59.10
2018-05-17T00:02:47.855Z,59.10
2018-05-17T00:05:15.611Z,59.10
2018-05-17T00:07:42.606Z,59.10
2018-05-17T00:10:09.611Z,59.10
2018-05-17T00:12:37.370Z,59.70
2018-05-17T00:15:04.364Z,59.10
2018-05-17T00:17:31.352Z,59.10
2018-05-17T00:19:58.355Z,59.10
2018-05-17T00:22:25.396Z,59.10
2018-05-17T00:24:52.342Z,59.10
2018-05-17T00:27:19.327Z,59.10
2018-05-17T00:29:46.321Z,59.10
2018-05-17T00:32:13.317Z,59.10
2018-05-17T00:34:40.328Z,59.20
2018-05-17T00:37:07.322Z,59.20
2018-05-17T00:39:34.320Z,59.20
2018-05-17T00:42:01.306Z,59.20
2018-05-17T00:44:28.294Z,59.20
2018-05-17T00:46:55.286Z,59.20
2018-05-17T00:49:22.280Z,59.20
2018-05-17T00:51:50.030Z,59.20
2018-05-17T00:54:17.781Z,59.20
2018-05-17T00:59:30.026Z,59.20
2018-05-17T01:01:57.014Z,59.20
2018-05-17T01:04:24.579Z,59.30
2018-05-17T01:06:51.570Z,59.20
2018-05-17T01:09:19.331Z,59.30
2018-05-17T01:11:47.088Z,59.30
2018-05-17T01:14:14.842Z,59.30
2018-05-17T01:16:41.849Z,59.30
2018-05-17T01:19:08.834Z,59.30
2018-05-17T01:21:35.821Z,59.30
2018-05-17T01:24:02.817Z,59.30
2018-05-17T01:26:29.818Z,59.30
2018-05-17T01:28:56.801Z,59.30
2018-05-17T01:31:23.797Z,59.30
2018-05-17T01:33:50.798Z,59.30
2018-05-17T01:36:17.785Z,59.20
2018-05-17T01:38:44.782Z,59.30
2018-05-17T01:41:11.771Z,59.30
2018-05-17T01:43:38.767Z,59.30
2018-05-17T01:46:06.521Z,59.30
2018-05-17T01:48:33.514Z,60.10
2018-05-17T01:51:01.266Z,59.40
2018-05-17T01:53:29.020Z,59.40
2018-05-17T01:55:56.022Z,59.20
2018-05-17T01:58:23.001Z,59.30
2018-05-17T02:00:49.999Z,59.30
2018-05-17T02:03:16.989Z,59.30
2018-05-17T02:05:43.978Z,59.30
2018-05-17T02:08:10.968Z,59.20
2018-05-17T02:10:37.962Z,59.30
2018-05-17T02:13:05.726Z,59.40
2018-05-17T02:15:33.494Z,59.30
2018-05-17T02:18:00.480Z,59.30
2018-05-17T02:20:27.461Z,59.40
2018-05-17T02:22:55.213Z,59.80
2018-05-17T02:25:22.213Z,59.30
2018-05-17T02:27:49.197Z,59.30
2018-05-17T02:30:16.249Z,59.30
2018-05-17T02:32:43.237Z,59.40
2018-05-17T02:35:10.246Z,59.30
2018-05-17T02:37:37.229Z,59.30
2018-05-17T02:40:04.225Z,59.40
2018-05-17T02:42:31.242Z,59.30
2018-05-17T02:44:58.229Z,59.30
2018-05-17T02:47:25.222Z,59.30
2018-05-17T02:49:52.227Z,59.30
2018-05-17T02:52:19.232Z,59.40
2018-05-17T02:54:46.217Z,59.80
2018-05-17T02:57:13.206Z,59.40
2018-05-17T02:59:40.202Z,59.70
2018-05-17T03:02:07.190Z,59.30
2018-05-17T03:04:34.182Z,59.40
2018-05-17T03:07:01.168Z,59.40
2018-05-17T03:09:28.157Z,59.40
2018-05-17T03:11:55.146Z,59.40
2018-05-17T03:14:22.901Z,59.40
2018-05-17T03:16:49.891Z,59.40
2018-05-17T03:19:16.878Z,59.40
2018-05-17T03:21:43.881Z,59.40
2018-05-17T03:24:10.873Z,59.40
2018-05-17T03:26:37.857Z,59.40
2018-05-17T03:29:04.849Z,59.40
2018-05-17T03:31:31.842Z,59.40
2018-05-17T03:33:59.599Z,59.40
2018-05-17T03:36:27.351Z,59.40
2018-05-17T03:38:55.114Z,59.40
2018-05-17T03:41:23.815Z,59.40
2018-05-17T03:43:51.599Z,59.40
2018-05-17T03:46:18.587Z,59.40
2018-05-17T03:48:45.581Z,59.40
2018-05-17T03:51:12.566Z,59.40
2018-05-17T03:53:39.562Z,59.40
2018-05-17T03:56:07.342Z,59.40
2018-05-17T03:58:34.333Z,59.40
2018-05-17T04:01:07.189Z,59.40
2018-05-17T04:03:40.111Z,59.40
2018-05-17T04:06:12.969Z,59.40
2018-05-17T04:08:40.007Z,59.40
2018-05-17T04:11:08.078Z,59.40
2018-05-17T04:13:35.075Z,59.40
2018-05-17T04:16:02.837Z,59.60
2018-05-17T04:18:30.611Z,59.60
2018-05-17T04:20:58.366Z,59.60
2018-05-17T04:23:26.122Z,59.70
2018-05-17T04:25:53.878Z,60.30
2018-05-17T04:28:20.873Z,59.70
2018-05-17T04:30:47.862Z,59.70
2018-05-17T04:33:14.854Z,59.70
2018-05-17T04:35:41.850Z,59.70
2018-05-17T04:38:08.842Z,59.60
2018-05-17T04:40:35.831Z,59.70
2018-05-17T04:43:03.592Z,59.70
2018-05-17T04:45:30.577Z,59.50
2018-05-17T04:47:58.338Z,59.70
2018-05-17T04:50:26.251Z,59.70
2018-05-17T04:52:53.266Z,59.60
2018-05-17T04:55:21.030Z,59.60
2018-05-17T04:57:48.893Z,59.60
2018-05-17T05:00:15.976Z,59.40
2018-05-17T05:02:43.047Z,59.70
2018-05-17T05:05:10.746Z,59.70
2018-05-17T05:07:38.830Z,59.60
2018-05-17T05:10:05.844Z,59.70
2018-05-17T05:12:32.835Z,59.80
2018-05-17T05:14:59.825Z,60.20
2018-05-17T05:17:26.811Z,60.10
2018-05-17T05:19:53.802Z,60.10
2018-05-17T05:22:20.789Z,60.10
2018-05-17T05:24:48.549Z,59.90
2018-05-17T05:27:16.305Z,59.90
2018-05-17T05:29:44.069Z,60.20
2018-05-17T05:32:11.833Z,59.90
2018-05-17T05:34:39.593Z,60.00
2018-05-17T05:37:06.589Z,59.90
2018-05-17T05:39:33.586Z,59.90
2018-05-17T05:42:00.609Z,59.80
2018-05-17T05:44:27.601Z,60.40
2018-05-17T05:46:54.598Z,59.80
2018-05-17T05:49:21.697Z,59.80
2018-05-17T05:51:48.613Z,59.70
2018-05-17T05:54:15.601Z,59.70
2018-05-17T05:56:42.609Z,59.80
2018-05-17T05:59:10.450Z,59.70
2018-05-17T06:01:37.442Z,59.70
2018-05-17T06:04:04.434Z,59.60
2018-05-17T06:06:31.422Z,59.70
2018-05-17T06:08:59.252Z,59.60
2018-05-17T06:11:26.246Z,59.60
2018-05-17T06:13:53.234Z,59.60
2018-05-17T06:16:20.222Z,59.60
2018-05-17T06:18:47.981Z,59.60
2018-05-17T06:21:15.754Z,59.60
2018-05-17T06:23:43.575Z,59.60
2018-05-17T06:26:10.510Z,59.60
2018-05-17T06:28:37.539Z,59.60
2018-05-17T06:31:04.525Z,59.60
2018-05-17T06:33:33.030Z,59.60
2018-05-17T06:36:00.794Z,59.60
2018-05-17T06:38:28.557Z,59.60
2018-05-17T06:40:56.385Z,59.60
2018-05-17T06:43:23.378Z,59.60
2018-05-17T06:45:50.381Z,59.60
2018-05-17T06:48:17.438Z,59.60
2018-05-17T06:50:44.426Z,59.60
2018-05-17T06:53:11.409Z,59.60
2018-05-17T06:55:38.411Z,59.60
2018-05-17T06:58:06.162Z,59.60
2018-05-17T07:00:33.976Z,59.60
2018-05-17T07:03:01.763Z,59.60
2018-05-17T07:05:28.757Z,59.50
2018-05-17T07:07:55.851Z,59.50
2018-05-17T07:10:22.884Z,59.50
2018-05-17T07:12:49.833Z,60.10
2018-05-17T07:15:16.826Z,59.50
2018-05-17T07:17:43.810Z,59.50
2018-05-17T07:20:10.806Z,59.50
2018-05-17T07:22:37.801Z,59.50
2018-05-17T07:25:04.811Z,59.20
2018-05-17T07:27:32.557Z,59.50
2018-05-17T07:29:59.554Z,59.40
2018-05-17T07:32:26.553Z,59.40
2018-05-17T07:34:53.579Z,59.50
2018-05-17T07:37:20.585Z,60.00
2018-05-17T07:39:47.573Z,59.40
2018-05-17T07:42:14.617Z,59.40
2018-05-17T07:44:41.614Z,59.40
2018-05-17T07:47:08.612Z,59.40
2018-05-17T07:49:35.597Z,59.40
2018-05-17T07:52:02.664Z,59.40
2018-05-17T07:54:29.596Z,59.40
2018-05-17T07:56:56.593Z,59.30
2018-05-17T07:59:23.581Z,59.40
2018-05-17T08:01:50.757Z,59.30
2018-05-17T08:04:17.678Z,59.40
2018-05-17T08:06:44.674Z,59.30
2018-05-17T08:09:11.661Z,59.30
2018-05-17T08:11:38.766Z,59.30
2018-05-17T08:14:05.758Z,59.40
2018-05-17T08:16:32.757Z,59.40
2018-05-17T08:18:59.806Z,59.30
2018-05-17T08:21:26.814Z,59.20
2018-05-17T08:23:53.806Z,59.30
2018-05-17T08:26:20.794Z,59.30
2018-05-17T08:28:47.777Z,59.20
2018-05-17T08:31:14.847Z,59.20
2018-05-17T08:33:41.882Z,59.20
2018-05-17T08:36:08.928Z,59.30
2018-05-17T08:38:35.866Z,59.20
2018-05-17T08:41:02.849Z,59.20
2018-05-17T08:43:30.630Z,59.20
2018-05-17T08:45:57.617Z,59.20
2018-05-17T08:48:24.611Z,59.20
2018-05-17T08:50:52.397Z,59.20
2018-05-17T08:53:19.393Z,59.20
2018-05-17T08:55:46.384Z,59.10
2018-05-17T08:58:13.382Z,59.10
2018-05-17T09:00:40.401Z,59.10
2018-05-17T09:03:07.463Z,59.10
2018-05-17T09:05:34.453Z,59.10
2018-05-17T09:08:02.205Z,59.10
2018-05-17T09:10:30.042Z,59.10
2018-05-17T09:12:57.058Z,59.10
2018-05-17T09:15:24.130Z,59.10
2018-05-17T09:17:51.125Z,59.10
2018-05-17T09:20:18.922Z,59.10
2018-05-17T09:22:46.633Z,59.10
2018-05-17T09:25:14.395Z,59.10
2018-05-17T09:27:42.145Z,59.10
2018-05-17T09:30:09.136Z,59.10
2018-05-17T09:32:36.230Z,59.10
2018-05-17T09:35:03.222Z,59.10
2018-05-17T09:37:30.209Z,59.10
2018-05-17T09:39:57.270Z,59.10
2018-05-17T09:42:24.266Z,59.10
2018-05-17T09:44:51.358Z,59.10
2018-05-17T09:47:18.362Z,59.10
2018-05-17T09:49:45.377Z,59.10
2018-05-17T09:52:12.365Z,59.10
2018-05-17T09:54:39.349Z,59.10
2018-05-17T09:57:06.352Z,59.10
2018-05-17T09:59:33.338Z,59.10
2018-05-17T10:02:00.333Z,59.10
2018-05-17T10:04:27.321Z,59.10
2018-05-17T10:06:54.321Z,59.10
2018-05-17T10:09:21.323Z,59.10
2018-05-17T10:11:48.309Z,59.10
2018-05-17T10:14:15.299Z,59.10
2018-05-17T10:16:42.358Z,59.10
2018-05-17T10:19:09.350Z,59.10
2018-05-17T10:21:36.449Z,59.10
2018-05-17T10:24:03.441Z,59.10
2018-05-17T10:26:30.434Z,59.00
2018-05-17T10:28:57.486Z,59.10
2018-05-17T10:31:24.534Z,59.10
2018-05-17T10:33:51.621Z,59.10
2018-05-17T10:36:19.374Z,59.10
2018-05-17T10:38:47.126Z,59.10
2018-05-17T10:41:14.125Z,59.10
2018-05-17T10:43:41.121Z,59.70
2018-05-17T10:46:08.106Z,59.10
2018-05-17T10:48:35.089Z,58.60
2018-05-17T10:51:02.157Z,59.00
2018-05-17T10:53:29.145Z,59.00
2018-05-17T10:55:56.134Z,59.10
2018-05-17T10:58:23.176Z,59.10
2018-05-17T11:00:50.162Z,59.00
2018-05-17T11:03:17.990Z,59.00
2018-05-17T11:05:44.985Z,59.00
2018-05-17T11:08:11.970Z,59.00
2018-05-17T11:10:38.966Z,59.10
2018-05-17T11:13:06.722Z,59.00
2018-05-17T11:15:34.492Z,59.10
2018-05-17T11:18:02.242Z,59.10
2018-05-17T11:20:30.079Z,59.10
2018-05-17T11:22:57.070Z,59.10
2018-05-17T11:25:24.069Z,59.00
2018-05-17T11:27:51.054Z,59.10
2018-05-17T11:30:18.807Z,59.10
2018-05-17T11:32:46.561Z,59.10
2018-05-17T11:35:13.558Z,59.10
2018-05-17T11:37:40.547Z,59.10
2018-05-17T11:40:07.590Z,59.10
2018-05-17T11:42:34.594Z,59.10
2018-05-17T11:45:01.779Z,59.10
2018-05-17T11:47:28.771Z,59.10
2018-05-17T11:49:55.761Z,59.30
2018-05-17T11:52:22.817Z,59.20
2018-05-17T11:54:49.808Z,59.20
2018-05-17T11:57:17.563Z,59.20
2018-05-17T11:59:45.326Z,59.10
2018-05-17T12:02:13.070Z,59.20
2018-05-17T12:04:40.093Z,59.10
2018-05-17T12:07:07.085Z,59.30
2018-05-17T12:09:34.842Z,59.30
2018-05-17T12:12:02.609Z,59.10
2018-05-17T12:14:30.367Z,59.20
2018-05-17T12:16:58.116Z,59.30
2018-05-17T12:19:25.124Z,59.30
2018-05-17T12:21:52.109Z,59.30
2018-05-17T12:24:19.114Z,59.30
2018-05-17T12:26:46.101Z,59.30
2018-05-17T12:29:13.146Z,59.40
2018-05-17T12:31:40.229Z,59.40
2018-05-17T12:34:07.135Z,59.30
2018-05-17T12:36:34.117Z,59.30
2018-05-17T12:39:01.126Z,59.30
2018-05-17T12:41:28.113Z,59.30
2018-05-17T12:43:55.224Z,59.30
2018-05-17T12:46:22.210Z,59.30
2018-05-17T12:48:49.217Z,59.30
2018-05-17T12:51:16.210Z,59.30
2018-05-17T12:53:43.202Z,59.30
2018-05-17T12:56:10.194Z,59.30
2018-05-17T12:58:37.230Z,59.30
2018-05-17T13:01:04.985Z,59.30
2018-05-17T13:03:32.090Z,59.20
2018-05-17T13:05:59.077Z,59.30
2018-05-17T13:08:26.075Z,59.30
2018-05-17T13:10:53.066Z,59.20
2018-05-17T13:13:20.817Z,59.20
2018-05-17T13:15:48.580Z,59.20
2018-05-17T13:18:15.613Z,59.20
2018-05-17T13:20:42.610Z,59.80
2018-05-17T13:23:09.699Z,59.20
2018-05-17T13:25:36.749Z,59.10
2018-05-17T13:28:03.734Z,59.10
2018-05-17T13:30:30.724Z,59.10
2018-05-17T13:32:57.705Z,59.10
2018-05-17T13:35:25.550Z,59.10
2018-05-17T13:37:52.540Z,59.10
2018-05-17T13:40:19.526Z,59.70
2018-05-17T13:42:46.661Z,59.20
2018-05-17T13:45:13.651Z,59.10
2018-05-17T13:47:40.736Z,59.10
2018-05-17T13:50:07.645Z,60.20
2018-05-17T13:52:35.428Z,59.70
2018-05-17T13:55:03.182Z,59.40
2018-05-17T13:57:30.941Z,59.60
2018-05-17T13:59:58.700Z,60.00
2018-05-17T14:02:25.853Z,59.40
2018-05-17T14:04:52.717Z,59.20
2018-05-17T14:07:19.709Z,59.10
2018-05-17T14:09:46.803Z,59.10
2018-05-17T14:12:13.765Z,58.90
2018-05-17T14:14:40.766Z,58.90
2018-05-17T14:17:07.767Z,59.00
2018-05-17T14:19:34.771Z,59.20
2018-05-17T14:22:01.763Z,59.20
2018-05-17T14:24:28.898Z,59.20
2018-05-17T14:26:55.924Z,59.10
2018-05-17T14:29:23.690Z,59.00
2018-05-17T14:31:51.488Z,59.10
2018-05-17T14:34:19.273Z,59.10
2018-05-17T14:36:46.321Z,59.10
2018-05-17T14:39:13.333Z,59.00
2018-05-17T14:41:40.351Z,59.00
2018-05-17T14:44:08.097Z,59.10
2018-05-17T14:46:35.090Z,59.00
2018-05-17T14:49:02.177Z,59.10
2018-05-17T14:51:30.677Z,59.10
2018-05-17T14:53:57.801Z,59.10
2018-05-17T14:56:24.790Z,59.30
2018-05-17T14:58:52.618Z,59.10
2018-05-17T15:01:19.672Z,59.10
2018-05-17T15:03:46.593Z,59.10
2018-05-17T15:06:13.586Z,59.10
2018-05-17T15:08:41.370Z,59.10
2018-05-17T15:11:11.988Z,59.10
2018-05-17T15:13:36.107Z,59.10
2018-05-17T15:16:03.126Z,59.10
2018-05-17T15:18:30.110Z,59.10
2018-05-17T15:20:57.113Z,59.10
2018-05-17T15:23:24.160Z,59.10
2018-05-17T15:25:51.157Z,59.10
2018-05-17T15:28:18.142Z,59.70
2018-05-17T15:30:45.926Z,59.10
2018-05-17T15:33:12.922Z,59.10
2018-05-17T15:35:39.914Z,59.10
2018-05-17T15:38:06.901Z,59.10
2018-05-17T15:40:33.898Z,59.10
2018-05-17T15:43:01.964Z,59.20
2018-05-17T15:45:29.018Z,59.10
2018-05-17T15:47:56.010Z,59.10
2018-05-17T15:50:23.095Z,59.20
2018-05-17T15:52:50.094Z,59.10
2018-05-17T15:55:17.077Z,59.10
2018-05-17T15:57:44.127Z,59.10
2018-05-17T16:00:11.117Z,59.10
2018-05-17T16:02:39.070Z,59.10
2018-05-17T16:05:06.207Z,59.10
2018-05-17T16:07:33.289Z,59.10
2018-05-17T16:10:00.324Z,57.90
2018-05-17T16:12:28.099Z,57.70
2018-05-17T16:14:55.200Z,57.70
2018-05-17T16:17:22.136Z,58.20
2018-05-17T16:19:49.238Z,58.30
2018-05-17T16:22:17.000Z,58.80
2018-05-17T16:24:44.766Z,58.90
2018-05-17T16:27:12.535Z,58.80
2018-05-17T16:29:40.289Z,58.90
2018-05-17T16:32:08.290Z,59.90
2018-05-17T16:34:35.373Z,59.10
2018-05-17T16:37:02.375Z,59.10
2018-05-17T16:39:29.382Z,59.10
2018-05-17T16:41:56.390Z,59.10
2018-05-17T16:44:23.384Z,59.00
2018-05-17T16:46:50.378Z,58.90
2018-05-17T16:49:17.374Z,58.90
2018-05-17T16:51:44.370Z,58.90
2018-05-17T16:54:11.412Z,58.90
2018-05-17T16:56:38.361Z,58.90
2018-05-17T16:59:05.377Z,59.10
2018-05-17T17:01:33.154Z,59.30
2018-05-17T17:04:00.949Z,59.10
2018-05-17T17:06:27.953Z,59.10
2018-05-17T17:08:55.792Z,59.10
2018-05-17T17:11:22.799Z,59.00
2018-05-17T17:13:49.791Z,59.00
2018-05-17T17:16:16.778Z,58.90
2018-05-17T17:18:43.768Z,59.00
2018-05-17T17:21:10.757Z,59.00
2018-05-17T17:23:38.523Z,59.00
2018-05-17T17:26:06.319Z,59.00
2018-05-17T17:28:33.306Z,58.90
2018-05-17T17:31:00.453Z,59.00
2018-05-17T17:33:27.343Z,59.00
2018-05-17T17:35:54.380Z,59.00
2018-05-17T17:38:22.147Z,59.00
2018-05-17T17:40:50.074Z,59.00
2018-05-17T17:43:18.578Z,59.00
2018-05-17T17:45:46.342Z,59.10
2018-05-17T17:48:14.110Z,59.00
2018-05-17T17:50:41.873Z,59.00
2018-05-17T17:53:09.631Z,59.00
2018-05-17T17:55:37.404Z,59.00
2018-05-17T17:58:05.158Z,59.00
2018-05-17T18:00:32.922Z,59.00
2018-05-17T18:03:00.690Z,59.00
2018-05-17T18:05:28.512Z,59.10
2018-05-17T18:07:56.215Z,59.00
2018-05-17T18:10:23.993Z,59.10
2018-05-17T18:12:50.982Z,59.00
2018-05-17T18:15:17.978Z,59.00
2018-05-17T18:17:45.738Z,59.00
2018-05-17T18:20:13.546Z,59.00
2018-05-17T18:22:40.619Z,59.00
2018-05-17T18:25:07.632Z,59.00
2018-05-17T18:27:35.583Z,59.00
2018-05-17T18:30:02.584Z,59.00
2018-05-17T18:32:29.575Z,59.00
2018-05-17T18:34:56.625Z,59.00
2018-05-17T18:37:23.622Z,59.00
2018-05-17T18:39:50.623Z,59.10
2018-05-17T18:42:17.618Z,59.30
2018-05-17T18:44:44.610Z,59.30
2018-05-17T18:47:11.603Z,59.20
2018-05-17T18:49:38.610Z,59.10
2018-05-17T18:52:05.615Z,58.90
2018-05-17T18:54:33.467Z,58.80
2018-05-17T18:57:01.178Z,58.90
2018-05-17T18:59:28.181Z,58.80
2018-05-17T19:01:55.283Z,58.80
2018-05-17T19:04:22.210Z,58.90
2018-05-17T19:06:49.220Z,58.90
2018-05-17T19:09:16.224Z,59.10
2018-05-17T19:11:43.242Z,59.00
2018-05-17T19:14:10.276Z,58.80
2018-05-17T19:16:38.018Z,58.70
2018-05-17T19:19:05.023Z,58.60
2018-05-17T19:21:32.014Z,58.70
2018-05-17T19:23:59.019Z,58.80
2018-05-17T19:26:26.027Z,58.80
2018-05-17T19:28:53.122Z,58.50
2018-05-17T19:31:20.174Z,58.20
2018-05-17T19:33:47.067Z,58.40
2018-05-17T19:36:14.826Z,58.80
2018-05-17T19:38:42.586Z,59.00
2018-05-17T19:41:10.357Z,59.00
2018-05-17T19:43:37.347Z,58.90
2018-05-17T19:46:04.349Z,59.10
2018-05-17T19:48:31.355Z,59.00
2018-05-17T19:50:58.384Z,59.00
2018-05-17T19:53:25.386Z,59.00
2018-05-17T19:55:52.377Z,59.00
2018-05-17T19:58:19.438Z,59.00
2018-05-17T20:00:46.511Z,59.00
2018-05-17T20:03:14.374Z,59.60
2018-05-17T20:05:42.146Z,59.00
2018-05-17T20:08:09.918Z,59.10
2018-05-17T20:10:36.926Z,59.00
2018-05-17T20:13:03.932Z,59.00
2018-05-17T20:15:30.928Z,59.00
2018-05-17T20:17:57.926Z,59.00
2018-05-17T20:20:24.920Z,59.00
2018-05-17T20:22:53.571Z,59.10
2018-05-17T20:25:20.589Z,59.00
2018-05-17T20:27:47.969Z,59.10
2018-05-17T20:30:14.961Z,59.00
2018-05-17T20:32:42.719Z,59.10
2018-05-17T20:35:10.487Z,59.10
2018-05-17T20:37:38.273Z,59.10
2018-05-17T20:40:05.379Z,59.10
2018-05-17T20:42:32.382Z,59.10
2018-05-17T20:44:59.381Z,59.10
2018-05-17T20:47:26.381Z,59.10
2018-05-17T20:49:53.389Z,59.70
2018-05-17T20:52:21.162Z,59.10
2018-05-17T20:54:48.927Z,59.10
2018-05-17T20:57:15.925Z,59.10
2018-05-17T20:59:42.989Z,59.10
2018-05-17T21:02:09.977Z,59.00
2018-05-17T21:04:36.989Z,59.10
2018-05-17T21:07:03.981Z,59.10
2018-05-17T21:09:30.969Z,59.10
2018-05-17T21:11:57.972Z,59.10
2018-05-17T21:14:25.457Z,59.10
2018-05-17T21:16:52.453Z,59.10
2018-05-17T21:19:19.472Z,59.10
2018-05-17T21:21:46.461Z,59.10
2018-05-17T21:24:13.554Z,59.10
2018-05-17T21:26:41.837Z,59.10
2018-05-17T21:29:08.834Z,59.10
2018-05-17T21:31:35.831Z,59.10
2018-05-17T21:34:02.967Z,59.10
2018-05-17T21:36:29.876Z,59.10
2018-05-17T21:38:56.961Z,59.10
2018-05-17T21:41:23.949Z,59.10
2018-05-17T21:43:50.945Z,59.10
2018-05-17T21:46:17.954Z,59.10
2018-05-17T21:48:44.950Z,59.10
2018-05-17T21:51:11.951Z,59.10
2018-05-17T21:53:38.942Z,59.10
2018-05-17T21:56:05.930Z,59.10
2018-05-17T21:58:32.919Z,59.10
2018-05-17T22:00:59.917Z,59.10
2018-05-17T22:03:26.910Z,59.10
2018-05-17T22:05:53.902Z,59.10
2018-05-17T22:08:20.885Z,59.10
2018-05-17T22:10:47.874Z,59.10
2018-05-17T22:13:15.633Z,59.70
2018-05-17T22:15:43.393Z,59.20
2018-05-17T22:18:10.392Z,59.10
2018-05-17T22:20:37.388Z,59.50
2018-05-17T22:23:04.391Z,59.10
2018-05-17T22:25:31.382Z,59.10
2018-05-17T22:27:59.134Z,59.70
2018-05-17T22:30:26.125Z,59.10
2018-05-17T22:32:53.113Z,59.10
2018-05-17T22:35:20.106Z,59.10
2018-05-17T22:37:47.097Z,59.20
2018-05-17T22:40:14.093Z,59.10
2018-05-17T22:42:41.085Z,59.20
2018-05-17T22:45:08.142Z,59.10
2018-05-17T22:47:35.128Z,59.20
2018-05-17T22:50:02.881Z,59.10
2018-05-17T22:52:30.638Z,59.20
2018-05-17T22:54:58.482Z,59.20
2018-05-17T22:57:32.150Z,59.70
2018-05-17T22:59:59.139Z,59.20
2018-05-17T23:02:26.122Z,59.10
2018-05-17T23:04:53.117Z,59.20
2018-05-17T23:07:20.881Z,58.70
2018-05-17T23:09:47.886Z,59.20
2018-05-17T23:12:14.881Z,59.20
2018-05-17T23:14:42.639Z,59.20
2018-05-17T23:17:09.630Z,59.20
2018-05-17T23:19:36.622Z,59.20
2018-05-17T23:22:03.618Z,59.20
2018-05-17T23:24:30.606Z,59.20
2018-05-17T23:26:57.614Z,59.20
2018-05-17T23:29:24.626Z,59.20
2018-05-17T23:31:51.619Z,59.20
2018-05-17T23:34:18.619Z,59.20
2018-05-17T23:36:45.601Z,59.20
2018-05-17T23:39:12.597Z,59.20
2018-05-17T23:41:45.529Z,59.20
2018-05-17T23:44:12.517Z,59.20
2018-05-17T23:46:39.509Z,59.20
2018-05-17T23:49:07.270Z,59.20
2018-05-17T23:51:35.033Z,59.30
2018-05-17T23:54:02.779Z,59.30
2018-05-17T23:56:29.768Z,59.20
2018-05-17T23:58:56.770Z,59.20
